ADDS METAR Data INFO
IDs: Format: Raw Decoded Include TAF

Data at: 2041 UTC 16 Dec 2017

KLVS 161953Z AUTO 17012KT 10SM CLR 14/M15 A2966 RMK AO2 SLP983 T01441150
KLVS 161853Z AUTO 18010KT 10SM CLR 13/M16 A2970 RMK AO2 SLP002 T01331161
KLVS 161753Z AUTO 20005KT 10SM CLR 13/M16 A2973 RMK AO2 SLP013 T01331161 10133 21056 58015
KLVS 161653Z AUTO 00000KT 10SM CLR 11/M15 A2976 RMK AO2 SLP028 T01061150
KLVS 161553Z AUTO 00000KT 10SM CLR 08/M16 A2977 RMK AO2 SLP032 T00781161
KLVS 161453Z AUTO 00000KT 10SM CLR 00/M14 A2979 RMK AO2 SLP065 T00001144 58011
KLVS 161353Z AUTO 20003KT 10SM CLR M03/M17 A2980 RMK AO2 SLP074 T10281167
KLVS 161253Z AUTO 16004KT 10SM CLR M06/M16 A2981 RMK AO2 SLP090 T10561161
KLVS 161153Z AUTO 34003KT 10SM CLR 00/M17 A2983 RMK AO2 SLP073 T00001167 10028 21022 58028
KLVS 161053Z AUTO 32003KT 10SM CLR 00/M17 A2986 RMK AO2 SLP068 T00001167
KLVS 160953Z AUTO 02004KT 10SM CLR M02/M17 A2990 RMK AO2 SLP086 T10221167
KLVS 160853Z AUTO 29006KT 10SM CLR M01/M17 A2993 RMK AO2 SLP093 T10111167 57019
KLVS 160753Z AUTO 30003KT 10SM CLR 02/M17 A2994 RMK AO2 SLP091 T00171172
KLVS 160653Z AUTO 29004KT 10SM CLR 01/M17 A2998 RMK AO2 SLP109 T00061172 401171094
KLVS 160553Z AUTO 34005KT 10SM CLR 01/M17 A3000 RMK AO2 SLP121 T00061172 10056 21033 58012
KLVS 160453Z AUTO 30005KT 10SM CLR 02/M17 A3001 RMK AO2 SLP132 T00171167
KLVS 160353Z AUTO 34007KT 10SM CLR 04/M17 A3003 RMK AO2 SLP145 T00391172
KLVS 160253Z AUTO 00000KT 10SM CLR 02/M16 A3004 RMK AO2 SLP170 T00221161 58005
KLVS 160153Z AUTO 20005KT 10SM CLR 03/M16 A3004 RMK AO2 SLP180 T00331161
KLVS 160053Z AUTO 16009KT 10SM CLR 02/M17 A3006 RMK AO2 SLP187 T00221167
KLVS 152353Z AUTO 16010KT 10SM CLR 04/M17 A3006 RMK AO2 SLP177 T00441172 10117 20044 56012
KLVS 152253Z AUTO 17009KT 10SM CLR 11/M18 A3007 RMK AO2 SLP163 T01061178
KLVS 152153Z AUTO 18013KT 10SM CLR 11/M19 A3008 RMK AO2 SLP160 T01111189
KLVS 152053Z AUTO 19011KT 10SM CLR 11/M18 A3010 RMK AO2 SLP170 T01111183 56028
KLVS 151953Z AUTO 20011KT 10SM CLR 11/M18 A3012 RMK AO2 SLP179 T01111183
KLVS 151853Z AUTO 20010KT 10SM CLR 10/M23 A3016 RMK AO2 SLP197 T01001233
KLVS 151753Z AUTO VRB03KT 10SM CLR 08/M19 A3020 RMK AO2 SLP216 I6001 T00781189 10083 21094 58003
KLVS 151653Z AUTO 22003KT 10SM CLR 05/M16 A3022 RMK AO2 SLP228 T00501161
KLVS 151553Z AUTO 28003KT 10SM CLR 00/M07 A3022 RMK AO2 SLP247 T00001072
KLVS 151453Z AUTO 29004KT 10SM CLR M06/M09 A3021 RMK AO2 SLP259 I3001 T10561094 56006
KLVS 151353Z AUTO 22004KT 10SM CLR M09/M11 A3022 RMK AO2 SLP271 I1001 T10941106
KLVS 151253Z AUTO 20005KT 10SM CLR M09/M11 A3023 RMK AO2 SLP265 T10941106
KLVS 151153Z AUTO 18010KT 10SM CLR M08/M09 A3024 RMK AO2 SLP258 T10831094 11056 21094 58008
KLVS 151053Z AUTO 17012KT 10SM CLR M07/M09 A3025 RMK AO2 WSHFT 0940 SLP249 T10721089
KLVS 151000Z AUTO 19013KT 10SM CLR M06/M08 A3026 RMK AO2 WSHFT 0940 T10611078
KLVS 150953Z AUTO 19014KT 10SM CLR M06/M07 A3027 RMK AO2 WSHFT 0937 SLP250 T10561072
KLVS 150853Z AUTO 20013KT 10SM CLR M07/M09 A3027 RMK AO2 SLP255 T10721089 56008